< < Back
Terminal Aerodrome Forecast


Current Version              Previous Versions:   1  2  3  4  5  6  7  8  9  

Terminal Aerodrome Forecast

416
FTUS44 KMRX 311120
TAFTYS
TAF
KTYS 311120Z 3112/0112 03009KT P6SM SKC
     FM010100 00000KT P6SM SKC=



Latest METAR

383
SAUS80 KWBC 011100 RRI
MTRTYS
METAR KTYS 011053Z 04004KT 10SM FEW080 17/16 A3002 RMK AO2 SLP155
T01670156


USA.gov is the U.S. government's official web portal to all federal, state and local government web resources and services.